Time;durP1;ratioP1;P1;durP2;ratioP2;P2;SDS_P1;SDS_P2;PMS_P1;PMS_P2;Temp;Humidity;BMP_temperature;BMP_pressure;BME280_temperature;BME280_humidity;BME280_pressure;Samples;Min_cycle;Max_cycle;Signal;HPM_P1;HPM_P2
2024/02/21 00:00:43;;;;;;;14.60;9.50;;;10.10;91.30;;;;;;5092091;28;20081;-33
2024/02/21 00:03:09;;;;;;;18.98;9.27;;;10.20;91.30;;;;;;5091627;28;20021;-33
2024/02/21 00:05:34;;;;;;;19.77;9.45;;;10.20;91.30;;;;;;5090327;28;20024;-32
2024/02/21 00:08:00;;;;;;;17.52;9.38;;;10.20;91.40;;;;;;5091928;28;20020;-31
2024/02/21 00:10:26;;;;;;;17.60;9.23;;;10.20;91.40;;;;;;5091660;28;20017;-33
2024/02/21 00:12:52;;;;;;;19.40;9.25;;;10.20;91.40;;;;;;5091786;28;20529;-32
2024/02/21 00:15:17;;;;;;;17.17;8.32;;;10.20;91.40;;;;;;5091499;28;20383;-33
2024/02/21 00:17:46;;;;;;;13.65;8.25;;;10.20;91.40;;;;;;5091510;28;20082;-33
2024/02/21 00:20:12;;;;;;;20.85;8.30;;;10.20;91.40;;;;;;5091649;28;20111;-32
2024/02/21 00:22:37;;;;;;;15.05;8.48;;;10.20;91.40;;;;;;5091538;28;20108;-33
2024/02/21 00:25:03;;;;;;;16.10;8.15;;;10.20;91.30;;;;;;5091255;28;20029;-33
2024/02/21 00:27:29;;;;;;;14.20;8.65;;;10.30;91.40;;;;;;5091661;28;20031;-33
2024/02/21 00:29:54;;;;;;;15.02;8.45;;;10.20;91.40;;;;;;5091631;28;20031;-33
2024/02/21 00:32:20;;;;;;;17.58;8.90;;;10.20;91.30;;;;;;5091496;28;20089;-33
2024/02/21 00:34:46;;;;;;;13.25;7.70;;;10.30;91.40;;;;;;5091128;28;20181;-33
2024/02/21 00:37:11;;;;;;;18.60;8.88;;;10.30;91.40;;;;;;5091264;28;20133;-32
2024/02/21 00:39:37;;;;;;;19.27;8.93;;;10.20;91.30;;;;;;5091323;28;20099;-33
2024/02/21 00:42:03;;;;;;;16.85;8.15;;;10.30;91.40;;;;;;5091369;28;20024;-32
2024/02/21 00:44:28;;;;;;;18.83;8.60;;;10.30;91.40;;;;;;5091456;28;20052;-33
2024/02/21 00:46:54;;;;;;;14.77;8.55;;;10.30;91.40;;;;;;5091038;28;20020;-32
2024/02/21 00:49:19;;;;;;;22.45;8.43;;;10.30;91.40;;;;;;5091250;28;20028;-32
2024/02/21 00:51:45;;;;;;;17.00;7.88;;;10.30;91.40;;;;;;5091397;28;20119;-33
2024/02/21 00:54:11;;;;;;;17.85;8.30;;;10.30;91.40;;;;;;5091144;28;20024;-32
2024/02/21 00:56:36;;;;;;;18.58;8.65;;;10.30;91.40;;;;;;5091331;28;20081;-33
2024/02/21 00:59:02;;;;;;;14.43;8.50;;;10.30;91.40;;;;;;5091021;28;20116;-33
2024/02/21 01:01:27;;;;;;;15.80;8.45;;;10.30;91.40;;;;;;5091024;28;20118;-33
2024/02/21 01:03:53;;;;;;;15.07;8.18;;;10.30;91.40;;;;;;5091000;28;20025;-32
2024/02/21 01:06:23;;;;;;;14.48;8.23;;;10.30;91.40;;;;;;5089829;28;20120;-33
2024/02/21 01:08:48;;;;;;;14.05;8.27;;;10.30;91.40;;;;;;5091312;28;20086;-33
2024/02/21 01:11:15;;;;;;;12.30;7.53;;;10.30;91.40;;;;;;5091144;28;20442;-33
2024/02/21 01:13:40;;;;;;;14.70;8.55;;;10.30;91.40;;;;;;5091040;28;20043;-33
2024/02/21 01:16:06;;;;;;;18.90;8.63;;;10.30;91.40;;;;;;5091257;28;20384;-34
2024/02/21 01:18:41;;;;;;;12.38;7.97;;;10.30;91.60;;;;;;5090762;28;20028;-33
2024/02/21 01:21:07;;;;;;;15.73;8.48;;;10.30;91.40;;;;;;5091168;28;20480;-34
2024/02/21 01:23:34;;;;;;;17.88;8.20;;;10.30;91.40;;;;;;5090972;28;20103;-33
2024/02/21 01:26:00;;;;;;;17.10;8.48;;;10.30;91.40;;;;;;5090865;28;20024;-32
2024/02/21 01:28:25;;;;;;;16.67;8.55;;;10.30;91.40;;;;;;5090832;28;20027;-33
2024/02/21 01:30:51;;;;;;;15.95;7.65;;;10.30;91.40;;;;;;5090839;28;20024;-33
2024/02/21 01:33:17;;;;;;;12.80;8.18;;;10.30;91.40;;;;;;5090844;28;20028;-34
2024/02/21 01:35:43;;;;;;;13.32;8.40;;;10.30;91.40;;;;;;5089630;28;20517;-33
2024/02/21 01:38:08;;;;;;;16.10;9.13;;;10.20;91.40;;;;;;5094781;28;20028;-34
2024/02/21 01:40:34;;;;;;;15.90;8.02;;;10.20;91.30;;;;;;5094322;28;20028;-32
2024/02/21 01:42:59;;;;;;;15.98;8.45;;;10.20;91.40;;;;;;5094392;28;20532;-33
2024/02/21 01:45:25;;;;;;;19.35;8.40;;;10.20;91.40;;;;;;5094233;28;20020;-33
2024/02/21 01:47:51;;;;;;;16.80;8.35;;;10.20;91.40;;;;;;5094144;28;20021;-34
2024/02/21 01:50:17;;;;;;;12.00;7.75;;;10.20;91.40;;;;;;5094275;28;20020;-34
2024/02/21 01:52:45;;;;;;;12.27;7.85;;;10.20;91.40;;;;;;5093920;28;20028;-33
2024/02/21 01:55:13;;;;;;;14.90;7.40;;;10.20;91.40;;;;;;5094073;28;20149;-32
2024/02/21 01:57:39;;;;;;;14.80;7.93;;;10.20;91.40;;;;;;5094047;28;20051;-34
2024/02/21 02:00:06;;;;;;;15.35;7.70;;;10.20;91.40;;;;;;5093953;28;20531;-34
2024/02/21 02:02:31;;;;;;;22.17;9.88;;;10.20;91.40;;;;;;5093605;28;20020;-32
2024/02/21 02:04:57;;;;;;;17.42;7.72;;;10.20;91.40;;;;;;5093766;28;20027;-33
2024/02/21 02:07:23;;;;;;;16.83;7.93;;;10.20;91.40;;;;;;5093997;28;20020;-33
2024/02/21 02:09:49;;;;;;;15.30;7.47;;;10.20;91.40;;;;;;5093861;28;20028;-34
2024/02/21 02:12:15;;;;;;;14.95;7.80;;;10.20;91.40;;;;;;5093939;28;20566;-34
2024/02/21 02:14:40;;;;;;;16.63;7.63;;;10.20;91.40;;;;;;5093561;28;20166;-33
2024/02/21 02:17:06;;;;;;;14.40;8.20;;;10.20;91.40;;;;;;5093564;28;20028;-34
2024/02/21 02:19:32;;;;;;;14.65;7.55;;;10.20;91.40;;;;;;5093589;28;20163;-33
2024/02/21 02:22:22;;;;;;;14.43;7.68;;;10.20;91.40;;;;;;5093848;28;20016;-34
2024/02/21 02:24:48;;;;;;;13.45;7.32;;;10.20;91.40;;;;;;5093568;28;20028;-33
2024/02/21 02:27:13;;;;;;;18.50;7.55;;;10.20;91.40;;;;;;5093894;28;20028;-33
2024/02/21 02:29:39;;;;;;;14.35;7.82;;;10.20;91.40;;;;;;5093413;28;20024;-34
2024/02/21 02:32:04;;;;;;;12.30;7.20;;;10.20;91.40;;;;;;5093358;28;20078;-32
2024/02/21 02:34:30;;;;;;;14.13;7.85;;;10.20;91.40;;;;;;5093141;28;20059;-33
2024/02/21 02:36:56;;;;;;;14.43;7.95;;;10.10;91.40;;;;;;5093200;28;20077;-33
2024/02/21 02:39:21;;;;;;;13.68;8.20;;;10.10;91.40;;;;;;5093220;28;20074;-33
2024/02/21 02:41:47;;;;;;;20.65;9.25;;;10.20;91.40;;;;;;5093193;28;20042;-33
2024/02/21 02:44:13;;;;;;;13.40;8.05;;;10.10;91.40;;;;;;5092927;28;20275;-32
2024/02/21 02:46:41;;;;;;;18.33;8.50;;;10.10;91.40;;;;;;5091789;28;20012;-33
2024/02/21 02:49:06;;;;;;;15.05;8.07;;;10.10;91.40;;;;;;5091811;28;20028;-33
2024/02/21 02:51:32;;;;;;;16.70;8.07;;;10.10;91.40;;;;;;5093323;28;20089;-33
2024/02/21 02:53:58;;;;;;;15.02;7.97;;;10.10;91.40;;;;;;5093086;28;20020;-34
2024/02/21 02:56:23;;;;;;;19.50;8.95;;;10.10;91.40;;;;;;5092906;28;20024;-33
2024/02/21 02:58:49;;;;;;;19.02;8.55;;;10.10;91.40;;;;;;5092825;28;20499;-33
2024/02/21 03:01:14;;;;;;;18.13;8.45;;;10.10;91.40;;;;;;5093084;28;20017;-33
2024/02/21 03:03:40;;;;;;;18.17;8.82;;;10.10;91.40;;;;;;5092647;28;20020;-33
2024/02/21 03:06:06;;;;;;;17.48;9.02;;;10.10;91.40;;;;;;5092636;28;20012;-34
2024/02/21 03:08:32;;;;;;;18.77;8.70;;;10.00;91.40;;;;;;5093014;28;20038;-32
2024/02/21 03:10:59;;;;;;;18.23;9.25;;;10.00;91.40;;;;;;5092880;28;20399;-33
2024/02/21 03:13:25;;;;;;;16.23;8.48;;;10.00;91.40;;;;;;5092807;28;20020;-33
2024/02/21 03:15:51;;;;;;;16.02;8.48;;;10.00;91.40;;;;;;5092779;28;20099;-33
2024/02/21 03:18:16;;;;;;;15.48;7.88;;;10.00;91.40;;;;;;5092879;28;20107;-34
2024/02/21 03:20:42;;;;;;;13.45;7.10;;;10.10;91.50;;;;;;5092539;28;20103;-33
2024/02/21 03:23:07;;;;;;;18.25;8.05;;;10.10;91.50;;;;;;5091010;28;20017;-33
2024/02/21 03:25:33;;;;;;;14.73;7.85;;;10.10;91.50;;;;;;5092493;28;20028;-32
2024/02/21 03:27:58;;;;;;;14.98;7.70;;;10.00;91.40;;;;;;5092384;28;20046;-34
2024/02/21 03:30:24;;;;;;;16.10;8.77;;;10.10;91.40;;;;;;5092221;28;20070;-34
2024/02/21 03:32:49;;;;;;;16.85;9.10;;;10.00;91.30;;;;;;5092524;28;20060;-34
2024/02/21 03:35:15;;;;;;;17.15;8.25;;;10.00;91.40;;;;;;5091928;28;20082;-33
2024/02/21 03:37:40;;;;;;;15.35;7.63;;;10.00;91.40;;;;;;5092168;28;20020;-33
2024/02/21 03:40:08;;;;;;;14.98;7.68;;;10.00;91.40;;;;;;5092275;28;20024;-34
2024/02/21 03:42:34;;;;;;;13.20;7.63;;;10.00;91.40;;;;;;5092611;28;20023;-33
2024/02/21 03:44:59;;;;;;;16.50;8.05;;;10.00;91.40;;;;;;5091873;28;20020;-34
2024/02/21 03:47:25;;;;;;;15.18;7.10;;;10.00;91.50;;;;;;5091776;28;20095;-34
2024/02/21 03:49:51;;;;;;;13.55;7.40;;;10.00;91.50;;;;;;5092014;28;20082;-34
2024/02/21 03:52:16;;;;;;;15.65;6.53;;;10.00;91.50;;;;;;5092172;28;20472;-33
2024/02/21 03:54:42;;;;;;;14.80;7.00;;;10.00;91.50;;;;;;5091607;28;20446;-34
2024/02/21 03:57:08;;;;;;;12.93;6.90;;;10.00;91.50;;;;;;5091813;28;20487;-33
2024/02/21 03:59:33;;;;;;;15.60;6.65;;;10.00;91.50;;;;;;5091407;28;20089;-34
2024/02/21 04:02:00;;;;;;;11.73;6.28;;;10.00;91.50;;;;;;5091690;28;20438;-34
2024/02/21 04:04:26;;;;;;;14.15;6.50;;;10.10;91.50;;;;;;5091491;28;20392;-35
2024/02/21 04:06:52;;;;;;;16.67;6.72;;;10.00;91.50;;;;;;5090421;28;20020;-33
2024/02/21 04:09:18;;;;;;;12.98;5.95;;;10.00;91.50;;;;;;5091647;28;20031;-33
2024/02/21 04:11:43;;;;;;;11.45;6.30;;;10.10;91.50;;;;;;5091452;28;20028;-32
2024/02/21 04:14:11;;;;;;;12.80;6.60;;;10.10;91.50;;;;;;5091518;28;20476;-34
2024/02/21 04:16:36;;;;;;;10.68;5.78;;;10.10;91.50;;;;;;5091661;28;20035;-33
2024/02/21 04:19:02;;;;;;;11.90;5.88;;;10.10;91.40;;;;;;5091421;28;20387;-33
2024/02/21 04:21:27;;;;;;;13.88;6.07;;;10.10;91.40;;;;;;5091898;28;20557;-33
2024/02/21 04:23:53;;;;;;;7.85;5.38;;;10.10;91.40;;;;;;5091251;28;20059;-33
2024/02/21 04:26:19;;;;;;;10.95;5.35;;;10.10;91.40;;;;;;5091656;28;20024;-33
2024/02/21 04:28:47;;;;;;;12.15;5.40;;;10.00;91.40;;;;;;5091301;28;20016;-33
2024/02/21 04:31:13;;;;;;;13.85;5.45;;;10.10;91.40;;;;;;5091299;28;20120;-34
2024/02/21 04:33:38;;;;;;;10.57;5.13;;;10.10;91.50;;;;;;5091082;28;20093;-33
2024/02/21 04:36:05;;;;;;;11.18;5.43;;;10.10;91.40;;;;;;5091151;28;20032;-34
2024/02/21 04:38:30;;;;;;;10.85;5.32;;;10.10;91.40;;;;;;5091594;28;20051;-34
2024/02/21 04:40:58;;;;;;;10.05;5.35;;;10.10;91.40;;;;;;5091227;28;20024;-35
2024/02/21 04:43:24;;;;;;;10.15;5.43;;;10.10;91.40;;;;;;5091128;28;20065;-34
2024/02/21 04:45:50;;;;;;;11.13;5.82;;;10.10;91.40;;;;;;5091217;28;20042;-34
2024/02/21 04:48:16;;;;;;;14.05;5.63;;;10.10;91.40;;;;;;5091413;28;20383;-33
2024/02/21 04:50:41;;;;;;;8.93;5.03;;;10.20;91.40;;;;;;5091218;28;20031;-33
2024/02/21 04:53:07;;;;;;;10.75;5.22;;;10.10;91.40;;;;;;5091023;28;20050;-34
2024/02/21 04:55:33;;;;;;;9.00;4.72;;;10.10;91.60;;;;;;5091385;28;20097;-35
2024/02/21 04:57:59;;;;;;;10.57;5.45;;;10.10;91.30;;;;;;5091137;28;20020;-33
2024/02/21 05:00:24;;;;;;;11.40;5.25;;;10.10;91.40;;;;;;5091444;28;20020;-34
2024/02/21 05:02:50;;;;;;;11.75;4.68;;;10.10;91.40;;;;;;5091470;28;20368;-35
2024/02/21 05:05:16;;;;;;;9.05;5.10;;;10.10;91.30;;;;;;5091004;28;20032;-34
2024/02/21 05:07:42;;;;;;;9.02;4.60;;;10.10;91.30;;;;;;5091103;28;20044;-34
2024/02/21 05:10:09;;;;;;;8.77;4.60;;;10.10;91.30;;;;;;5091063;28;20477;-34
2024/02/21 05:12:34;;;;;;;7.07;4.97;;;10.10;91.30;;;;;;5092801;28;20059;-34
2024/02/21 05:15:00;;;;;;;11.70;5.38;;;10.10;91.30;;;;;;5095021;28;20048;-35
2024/02/21 05:17:25;;;;;;;9.95;5.07;;;10.10;91.30;;;;;;5094750;28;20107;-34
2024/02/21 05:19:51;;;;;;;13.48;5.53;;;10.10;91.30;;;;;;5093531;28;20029;-34
2024/02/21 05:22:16;;;;;;;10.20;6.10;;;10.10;91.30;;;;;;5093535;28;20016;-35
2024/02/21 05:24:42;;;;;;;9.40;5.85;;;10.10;91.30;;;;;;5095005;28;20027;-34
2024/02/21 05:27:07;;;;;;;8.00;5.15;;;10.10;91.30;;;;;;5094686;28;20029;-34
2024/02/21 05:29:34;;;;;;;12.45;6.07;;;10.10;91.20;;;;;;5094872;28;20024;-34
2024/02/21 05:31:59;;;;;;;9.65;6.22;;;10.10;91.20;;;;;;5094542;28;20032;-35
2024/02/21 05:34:25;;;;;;;9.48;5.80;;;10.10;91.20;;;;;;5094265;28;20055;-33
2024/02/21 05:36:51;;;;;;;9.90;6.13;;;10.10;91.20;;;;;;5094539;28;20016;-32
2024/02/21 05:39:17;;;;;;;11.25;5.80;;;10.10;91.20;;;;;;5093971;28;20024;-33
2024/02/21 05:41:43;;;;;;;11.15;6.28;;;10.10;91.20;;;;;;5094292;28;20028;-34
2024/02/21 05:44:08;;;;;;;10.50;6.20;;;10.10;91.20;;;;;;5094417;28;20358;-34
2024/02/21 05:46:35;;;;;;;12.70;6.68;;;10.10;91.50;;;;;;5094087;28;20388;-33
2024/02/21 05:49:00;;;;;;;9.05;6.32;;;10.10;91.20;;;;;;5094318;28;20027;-34
2024/02/21 05:51:26;;;;;;;10.30;6.45;;;10.10;91.20;;;;;;5094111;28;20480;-33
2024/02/21 05:53:52;;;;;;;12.38;6.68;;;10.10;91.20;;;;;;5094122;28;20031;-33
2024/02/21 05:56:18;;;;;;;14.70;7.50;;;10.10;91.20;;;;;;5094153;28;20477;-34
2024/02/21 05:58:43;;;;;;;13.77;7.13;;;10.10;91.10;;;;;;5094002;28;20027;-34
2024/02/21 06:01:09;;;;;;;9.02;6.70;;;10.00;91.10;;;;;;5094099;28;20044;-35
2024/02/21 06:03:36;;;;;;;10.23;6.80;;;10.10;91.20;;;;;;5093778;28;20160;-34
2024/02/21 06:06:02;;;;;;;12.02;5.93;;;10.10;91.20;;;;;;5094173;28;20483;-34
2024/02/21 06:08:28;;;;;;;11.95;7.15;;;10.10;91.20;;;;;;5093939;28;20024;-34
2024/02/21 06:10:54;;;;;;;11.65;6.63;;;10.10;91.10;;;;;;5093861;28;20032;-33
2024/02/21 06:13:24;;;;;;;11.07;6.25;;;10.10;91.10;;;;;;5093735;28;20055;-34
2024/02/21 06:15:50;;;;;;;13.75;7.10;;;10.10;91.20;;;;;;5093696;28;20028;-34
2024/02/21 06:18:17;;;;;;;15.93;6.57;;;10.10;91.10;;;;;;5093938;28;20099;-33
2024/02/21 06:20:43;;;;;;;12.40;6.88;;;10.10;91.10;;;;;;5093614;28;20028;-32
2024/02/21 06:23:09;;;;;;;13.80;6.80;;;10.10;91.10;;;;;;5093355;28;20066;-34
2024/02/21 06:25:35;;;;;;;13.52;6.68;;;10.10;91.10;;;;;;5093631;28;20163;-33
2024/02/21 06:28:00;;;;;;;10.85;6.65;;;10.10;91.10;;;;;;5093761;28;20131;-34
2024/02/21 06:30:26;;;;;;;11.55;6.38;;;10.10;91.10;;;;;;5093594;28;20032;-33
2024/02/21 06:32:52;;;;;;;11.82;6.30;;;10.10;91.10;;;;;;5093609;28;20028;-33
2024/02/21 06:35:19;;;;;;;13.95;6.22;;;10.10;91.10;;;;;;5093083;28;20044;-35
2024/02/21 06:37:50;;;;;;;12.57;6.65;;;10.10;91.10;;;;;;5093198;28;20077;-33
2024/02/21 06:40:16;;;;;;;13.07;5.97;;;10.10;91.10;;;;;;5093462;28;20035;-33
2024/02/21 06:42:42;;;;;;;12.65;6.47;;;10.10;91.10;;;;;;5093370;28;20042;-34
2024/02/21 06:45:08;;;;;;;11.75;5.88;;;10.10;91.10;;;;;;5093082;28;20585;-33
2024/02/21 06:47:33;;;;;;;11.45;6.10;;;10.10;91.10;;;;;;5092945;28;20028;-33
2024/02/21 06:49:59;;;;;;;12.07;5.65;;;10.10;91.00;;;;;;5093119;28;20056;-35
2024/02/21 06:52:25;;;;;;;15.57;5.55;;;10.10;91.00;;;;;;5092964;28;20095;-34
2024/02/21 06:54:50;;;;;;;12.55;6.22;;;10.00;91.00;;;;;;5093121;28;20027;-34
2024/02/21 06:57:16;;;;;;;11.98;5.53;;;10.00;91.00;;;;;;5092851;28;20016;-34
2024/02/21 06:59:42;;;;;;;14.45;5.70;;;10.00;91.00;;;;;;5093077;28;20095;-34
2024/02/21 07:02:08;;;;;;;10.13;5.82;;;10.00;91.00;;;;;;5093049;28;20028;-35
2024/02/21 07:04:34;;;;;;;9.77;6.03;;;10.10;91.00;;;;;;5092732;28;20070;-32
2024/02/21 07:07:00;;;;;;;10.95;5.43;;;10.00;90.90;;;;;;5091524;28;20085;-34
2024/02/21 07:09:26;;;;;;;13.05;5.53;;;10.00;90.90;;;;;;5092668;28;20020;-34
2024/02/21 07:11:51;;;;;;;11.90;6.10;;;10.00;90.90;;;;;;5092879;28;20103;-41
2024/02/21 07:14:18;;;;;;;10.95;6.05;;;10.00;90.90;;;;;;5092392;28;20527;-36
2024/02/21 07:16:44;;;;;;;11.77;5.82;;;10.00;90.90;;;;;;5092548;28;20027;-37
2024/02/21 07:19:10;;;;;;;10.05;5.72;;;10.10;90.90;;;;;;5092264;28;20020;-33
2024/02/21 07:21:37;;;;;;;11.05;5.72;;;10.00;90.90;;;;;;5092564;28;20388;-33
2024/02/21 07:24:04;;;;;;;11.05;6.10;;;10.10;90.90;;;;;;5092526;28;20040;-34
2024/02/21 07:26:31;;;;;;;11.30;5.47;;;10.10;90.90;;;;;;5092410;28;20031;-34
2024/02/21 07:28:56;;;;;;;12.98;6.10;;;10.10;90.80;;;;;;5092434;28;20032;-33
2024/02/21 07:31:22;;;;;;;14.35;6.00;;;10.10;90.80;;;;;;5092258;28;20028;-34
2024/02/21 07:33:47;;;;;;;9.40;5.90;;;10.10;90.80;;;;;;5091484;28;20044;-36
2024/02/21 07:36:16;;;;;;;10.02;5.88;;;10.10;90.80;;;;;;5092203;28;20027;-33
2024/02/21 07:38:41;;;;;;;10.55;5.72;;;10.10;90.80;;;;;;5092412;28;20032;-33
2024/02/21 07:41:07;;;;;;;10.63;6.10;;;10.10;90.70;;;;;;5092109;28;20020;-34
2024/02/21 07:43:33;;;;;;;14.02;5.90;;;10.20;90.70;;;;;;5091950;28;20024;-34
2024/02/21 07:45:58;;;;;;;12.35;5.47;;;10.20;90.70;;;;;;5092185;28;20012;-34
2024/02/21 07:48:24;;;;;;;13.13;5.63;;;10.10;90.70;;;;;;5091862;28;20092;-34
2024/02/21 07:50:51;;;;;;;12.40;5.38;;;10.10;90.60;;;;;;5092010;28;20020;-34
2024/02/21 07:53:16;;;;;;;11.07;5.28;;;10.20;90.70;;;;;;5091696;28;20077;-35
2024/02/21 07:55:42;;;;;;;9.52;5.45;;;10.20;90.70;;;;;;5091905;28;20024;-34
2024/02/21 07:58:07;;;;;;;14.05;6.32;;;10.20;90.70;;;;;;5091689;28;20091;-34
2024/02/21 08:00:33;;;;;;;11.88;5.28;;;10.20;90.60;;;;;;5092016;28;20016;-34
2024/02/21 08:02:59;;;;;;;9.55;4.78;;;10.20;90.60;;;;;;5091990;28;20524;-35
2024/02/21 08:05:24;;;;;;;11.10;5.82;;;10.20;90.60;;;;;;5091480;28;20481;-33
2024/02/21 08:07:50;;;;;;;12.73;6.03;;;10.20;90.60;;;;;;5091992;28;20028;-34
2024/02/21 08:10:16;;;;;;;9.90;5.05;;;10.30;90.60;;;;;;5091696;28;20028;-33
2024/02/21 08:12:41;;;;;;;11.32;5.40;;;10.30;90.60;;;;;;5091556;28;20028;-34
2024/02/21 08:15:10;;;;;;;10.82;5.65;;;10.30;90.50;;;;;;5091500;28;20023;-33
2024/02/21 08:17:36;;;;;;;10.60;5.43;;;10.30;90.50;;;;;;5091357;28;20020;-33
2024/02/21 08:20:02;;;;;;;9.93;5.43;;;10.30;90.40;;;;;;5091534;28;20024;-35
2024/02/21 08:22:28;;;;;;;11.73;5.50;;;10.30;90.50;;;;;;5091808;28;20469;-34
2024/02/21 08:24:53;;;;;;;8.98;4.80;;;10.30;90.40;;;;;;5091312;28;20027;-34
2024/02/21 08:27:19;;;;;;;9.57;5.28;;;10.40;90.40;;;;;;5091513;28;20020;-35
2024/02/21 08:29:45;;;;;;;10.35;5.43;;;10.50;90.40;;;;;;5091341;28;20107;-33
2024/02/21 08:32:10;;;;;;;7.78;4.95;;;10.50;90.40;;;;;;5091653;28;20475;-35
2024/02/21 08:34:36;;;;;;;11.68;5.63;;;10.50;90.40;;;;;;5091209;28;20565;-34
2024/02/21 08:37:02;;;;;;;10.50;5.18;;;10.60;90.60;;;;;;5091201;28;20443;-35
2024/02/21 08:39:29;;;;;;;11.95;5.90;;;10.60;90.30;;;;;;5091519;28;20043;-34
2024/02/21 08:41:55;;;;;;;8.95;5.50;;;10.60;90.30;;;;;;5091548;28;20477;-34
2024/02/21 08:44:24;;;;;;;10.23;5.82;;;10.60;90.20;;;;;;5091297;28;20102;-34
2024/02/21 08:46:49;;;;;;;11.43;5.63;;;10.70;90.20;;;;;;5093107;28;20016;-33
2024/02/21 08:49:15;;;;;;;9.75;5.55;;;10.70;90.10;;;;;;5094182;28;20047;-33
2024/02/21 08:51:41;;;;;;;13.35;5.57;;;10.70;90.10;;;;;;5095439;28;20153;-34
2024/02/21 08:54:06;;;;;;;10.65;5.72;;;10.70;90.10;;;;;;5095286;28;20098;-35
2024/02/21 08:56:32;;;;;;;9.30;5.72;;;10.70;90.10;;;;;;5095369;28;20028;-35
2024/02/21 08:58:58;;;;;;;12.38;5.60;;;10.70;90.10;;;;;;5095348;28;20107;-35
2024/02/21 09:01:23;;;;;;;8.15;5.22;;;10.70;90.00;;;;;;5093916;28;20151;-34
2024/02/21 09:03:53;;;;;;;11.82;5.85;;;10.80;90.00;;;;;;5095054;28;20016;-35
2024/02/21 09:06:19;;;;;;;11.63;5.88;;;10.80;90.00;;;;;;5095470;28;20381;-35
2024/02/21 09:08:45;;;;;;;8.60;5.43;;;10.70;90.00;;;;;;5095497;28;20024;-34
2024/02/21 09:11:11;;;;;;;8.20;5.55;;;10.80;89.90;;;;;;5095235;28;20107;-35
2024/02/21 09:13:37;;;;;;;11.00;5.75;;;10.80;89.80;;;;;;5095188;28;20073;-34
2024/02/21 09:16:03;;;;;;;9.30;5.55;;;10.80;89.70;;;;;;5095233;28;20051;-34
2024/02/21 09:18:29;;;;;;;11.13;5.40;;;10.80;89.60;;;;;;5094813;28;20039;-35
2024/02/21 09:20:55;;;;;;;9.70;5.25;;;10.80;89.60;;;;;;5094890;28;20016;-35
2024/02/21 09:23:20;;;;;;;9.70;5.45;;;10.80;89.70;;;;;;5095042;28;20023;-35
2024/02/21 09:25:46;;;;;;;12.25;5.82;;;10.90;89.70;;;;;;5094776;28;20472;-35
2024/02/21 09:28:13;;;;;;;8.32;4.95;;;10.90;89.60;;;;;;5094977;28;20043;-34
2024/02/21 09:30:38;;;;;;;10.77;5.40;;;10.90;89.50;;;;;;5093595;28;20055;-35
2024/02/21 09:33:04;;;;;;;10.60;4.90;;;10.90;89.40;;;;;;5095223;28;20067;-35
2024/02/21 09:35:30;;;;;;;7.50;4.88;;;11.00;89.40;;;;;;5094336;28;20067;-35
2024/02/21 09:37:56;;;;;;;6.57;4.90;;;11.00;89.20;;;;;;5094934;28;20528;-34
2024/02/21 09:40:22;;;;;;;7.60;4.97;;;11.00;89.10;;;;;;5094566;28;20028;-35
2024/02/21 09:42:48;;;;;;;9.43;5.07;;;11.10;89.10;;;;;;5094241;28;20024;-33
2024/02/21 09:45:21;;;;;;;8.55;5.25;;;11.10;89.00;;;;;;5092973;28;20064;-35
2024/02/21 09:48:11;;;;;;;9.30;5.00;;;11.10;89.00;;;;;;5094256;28;20095;-32
2024/02/21 09:50:40;;;;;;;7.35;4.93;;;11.10;88.80;;;;;;5094286;28;20028;-34
2024/02/21 09:53:06;;;;;;;8.38;5.28;;;11.10;88.80;;;;;;5094492;28;20016;-35
2024/02/21 09:55:34;;;;;;;10.20;5.18;;;11.10;88.70;;;;;;5094257;28;20099;-35
2024/02/21 09:58:01;;;;;;;10.20;5.25;;;11.10;88.60;;;;;;5093741;28;20043;-34
2024/02/21 10:00:27;;;;;;;7.55;4.65;;;11.20;88.60;;;;;;5093988;28;20024;-33
2024/02/21 10:02:53;;;;;;;7.43;4.53;;;11.20;88.60;;;;;;5093931;28;20020;-33
2024/02/21 10:05:19;;;;;;;6.63;4.57;;;11.20;88.40;;;;;;5093833;28;20027;-34
2024/02/21 10:07:45;;;;;;;7.10;4.65;;;11.30;88.50;;;;;;5094065;28;20032;-33
2024/02/21 10:10:11;;;;;;;6.57;4.30;;;11.30;88.70;;;;;;5093955;28;20028;-34
2024/02/21 10:12:36;;;;;;;8.40;4.70;;;11.30;88.80;;;;;;5093919;28;20052;-33
2024/02/21 10:15:06;;;;;;;6.18;4.15;;;11.40;88.80;;;;;;5093885;28;20028;-33
2024/02/21 10:17:36;;;;;;;5.47;3.97;;;11.40;88.80;;;;;;5094098;28;20039;-34
2024/02/21 10:20:09;;;;;;;6.00;4.07;;;11.40;88.60;;;;;;5093939;28;20054;-32
2024/02/21 10:22:36;;;;;;;7.45;4.65;;;11.50;88.50;;;;;;5094008;28;20038;-34
2024/02/21 10:25:12;;;;;;;4.90;3.85;;;11.50;88.40;;;;;;5093591;28;20047;-35
2024/02/21 10:27:39;;;;;;;9.43;4.40;;;11.60;88.20;;;;;;5094003;28;20028;-34
2024/02/21 10:30:07;;;;;;;5.13;3.72;;;11.60;88.10;;;;;;5093468;28;20058;-35
2024/02/21 10:32:32;;;;;;;6.18;4.00;;;11.60;88.20;;;;;;5093686;28;20024;-35
2024/02/21 10:35:04;;;;;;;8.38;4.10;;;11.60;88.20;;;;;;5093173;28;20490;-34
2024/02/21 10:37:31;;;;;;;5.93;3.90;;;11.50;88.00;;;;;;5093511;28;20032;-34
2024/02/21 10:39:57;;;;;;;6.35;4.05;;;11.50;88.20;;;;;;5093500;28;20476;-35
2024/02/21 10:42:22;;;;;;;5.78;3.35;;;11.40;88.20;;;;;;5093819;28;20099;-35
2024/02/21 10:44:52;;;;;;;6.82;3.83;;;11.40;88.40;;;;;;5093396;28;20016;-34
2024/02/21 10:47:21;;;;;;;6.70;3.50;;;11.30;88.60;;;;;;5093004;28;20495;-34
2024/02/21 10:49:57;;;;;;;6.22;4.47;;;11.30;88.80;;;;;;5093409;28;20047;-32
2024/02/21 10:52:22;;;;;;;6.47;3.67;;;11.20;88.80;;;;;;5093244;28;20031;-36
2024/02/21 10:54:58;;;;;;;5.15;3.20;;;11.20;89.00;;;;;;5092933;28;20380;-35
2024/02/21 10:57:25;;;;;;;4.60;3.42;;;11.20;88.90;;;;;;5092951;28;20076;-36
2024/02/21 10:59:52;;;;;;;5.40;3.70;;;11.10;89.60;;;;;;5093135;28;20107;-37
2024/02/21 11:02:18;;;;;;;5.15;3.22;;;11.10;89.80;;;;;;5092721;28;20444;-35
2024/02/21 11:04:45;;;;;;;6.25;3.83;;;11.10;89.80;;;;;;5092754;28;20016;-34
2024/02/21 11:07:11;;;;;;;4.88;3.45;;;11.10;89.70;;;;;;5092854;28;20036;-35
2024/02/21 11:09:37;;;;;;;5.95;3.55;;;11.10;90.00;;;;;;5091907;28;20515;-34
2024/02/21 11:12:05;;;;;;;6.00;3.10;;;11.10;90.00;;;;;;5092777;28;20032;-37
2024/02/21 11:14:39;;;;;;;6.40;3.60;;;11.20;90.00;;;;;;5092703;28;20481;-36
2024/02/21 11:17:18;;;;;;;5.03;4.10;;;11.10;90.00;;;;;;5092925;28;20024;-34
2024/02/21 11:19:44;;;;;;;5.57;3.75;;;11.10;90.00;;;;;;5092706;28;20403;-35
2024/02/21 11:22:24;;;;;;;5.28;4.22;;;11.20;90.00;;;;;;5092853;28;20483;-35
2024/02/21 11:24:50;;;;;;;6.38;4.03;;;11.20;90.10;;;;;;5092599;28;20514;-35
2024/02/21 11:27:26;;;;;;;7.45;4.47;;;11.20;90.10;;;;;;5092549;28;20051;-34
2024/02/21 11:29:59;;;;;;;6.07;3.97;;;11.20;90.00;;;;;;5092763;28;20476;-35
2024/02/21 11:32:27;;;;;;;4.57;3.55;;;11.30;89.90;;;;;;5092855;28;20373;-35
2024/02/21 11:35:01;;;;;;;6.30;4.10;;;11.30;89.80;;;;;;5092169;28;20040;-36
2024/02/21 11:37:29;;;;;;;8.57;4.10;;;11.30;89.70;;;;;;5092308;28;20081;-35
2024/02/21 11:39:58;;;;;;;5.63;4.00;;;11.30;89.70;;;;;;5092559;28;20029;-35
2024/02/21 11:42:26;;;;;;;6.10;3.70;;;11.30;89.50;;;;;;5092128;28;20099;-34
2024/02/21 11:44:52;;;;;;;7.03;3.67;;;11.30;90.00;;;;;;5092045;28;20051;-36
2024/02/21 11:47:18;;;;;;;6.55;3.72;;;11.30;89.40;;;;;;5091994;28;20028;-35
2024/02/21 11:49:50;;;;;;;5.82;4.15;;;11.30;89.40;;;;;;5092126;28;20036;-35
2024/02/21 11:52:16;;;;;;;6.65;4.00;;;11.30;89.40;;;;;;5092049;28;20028;-36
2024/02/21 11:54:42;;;;;;;5.93;3.90;;;11.30;89.40;;;;;;5091873;28;20076;-36
2024/02/21 11:57:08;;;;;;;9.25;4.20;;;11.30;89.40;;;;;;5091909;28;20103;-35
2024/02/21 11:59:34;;;;;;;6.88;3.92;;;11.20;89.20;;;;;;5091900;28;20032;-35
2024/02/21 12:02:00;;;;;;;6.28;3.88;;;11.20;89.10;;;;;;5091793;28;20036;-34
2024/02/21 12:04:26;;;;;;;6.55;3.70;;;11.10;89.10;;;;;;5090524;28;20016;-36
2024/02/21 12:06:55;;;;;;;6.05;4.03;;;11.10;89.40;;;;;;5091998;28;20032;-38
2024/02/21 12:09:23;;;;;;;8.75;4.10;;;11.10;89.40;;;;;;5092076;28;20028;-36
2024/02/21 12:12:00;;;;;;;6.68;3.50;;;11.10;89.40;;;;;;5092012;28;20020;-36
2024/02/21 12:14:27;;;;;;;6.25;3.95;;;11.10;89.40;;;;;;5091940;28;20056;-36
2024/02/21 12:16:54;;;;;;;6.65;3.97;;;11.10;89.30;;;;;;5091907;28;20115;-34
2024/02/21 12:19:20;;;;;;;6.25;3.85;;;11.20;89.20;;;;;;5091822;28;20085;-35
2024/02/21 12:21:49;;;;;;;8.43;4.78;;;11.30;89.70;;;;;;5091448;28;20103;-34
2024/02/21 12:24:23;;;;;;;8.60;4.82;;;11.40;89.00;;;;;;5091700;28;20464;-35
2024/02/21 12:26:49;;;;;;;10.68;5.88;;;11.40;88.70;;;;;;5091632;28;20099;-35
2024/02/21 12:29:15;;;;;;;9.18;4.65;;;11.50;88.60;;;;;;5091547;28;20028;-35
2024/02/21 12:31:40;;;;;;;6.45;4.07;;;11.60;88.40;;;;;;5091486;28;20051;-34
2024/02/21 12:34:06;;;;;;;7.10;4.20;;;11.70;88.20;;;;;;5091231;28;20126;-35
2024/02/21 12:36:33;;;;;;;7.72;4.57;;;11.80;88.00;;;;;;5091907;28;20024;-35